sensor_id;sensor_type;location;lat;lon;timestamp;P1;durP1;ratioP1;P2;durP2;ratioP2
7575;SDS011;3829;50.798;4.358;2024-02-15T00:01:10;12.93;;;4.60;;
7575;SDS011;3829;50.798;4.358;2024-02-15T00:03:35;14.40;;;4.37;;
7575;SDS011;3829;50.798;4.358;2024-02-15T00:06:01;12.00;;;4.40;;
7575;SDS011;3829;50.798;4.358;2024-02-15T00:08:29;14.03;;;4.30;;
7575;SDS011;3829;50.798;4.358;2024-02-15T00:10:54;12.17;;;4.60;;
7575;SDS011;3829;50.798;4.358;2024-02-15T00:13:20;14.87;;;4.13;;
7575;SDS011;3829;50.798;4.358;2024-02-15T00:15:47;11.90;;;4.37;;
7575;SDS011;3829;50.798;4.358;2024-02-15T00:18:14;10.27;;;4.27;;
7575;SDS011;3829;50.798;4.358;2024-02-15T00:20:39;11.47;;;4.10;;
7575;SDS011;3829;50.798;4.358;2024-02-15T00:23:05;11.27;;;3.53;;
7575;SDS011;3829;50.798;4.358;2024-02-15T00:25:32;18.57;;;4.20;;
7575;SDS011;3829;50.798;4.358;2024-02-15T00:27:58;10.20;;;4.07;;
7575;SDS011;3829;50.798;4.358;2024-02-15T00:30:27;13.83;;;4.40;;
7575;SDS011;3829;50.798;4.358;2024-02-15T00:32:53;10.27;;;3.50;;
7575;SDS011;3829;50.798;4.358;2024-02-15T00:35:19;11.33;;;3.63;;
7575;SDS011;3829;50.798;4.358;2024-02-15T00:37:44;15.03;;;4.13;;
7575;SDS011;3829;50.798;4.358;2024-02-15T00:40:10;11.70;;;3.80;;
7575;SDS011;3829;50.798;4.358;2024-02-15T00:42:36;10.87;;;3.10;;
7575;SDS011;3829;50.798;4.358;2024-02-15T00:45:02;13.83;;;3.53;;
7575;SDS011;3829;50.798;4.358;2024-02-15T00:47:29;10.43;;;3.37;;
7575;SDS011;3829;50.798;4.358;2024-02-15T00:49:55;12.33;;;3.37;;
7575;SDS011;3829;50.798;4.358;2024-02-15T00:52:21;11.67;;;2.97;;
7575;SDS011;3829;50.798;4.358;2024-02-15T00:54:46;14.90;;;3.13;;
7575;SDS011;3829;50.798;4.358;2024-02-15T00:57:12;6.47;;;3.27;;
7575;SDS011;3829;50.798;4.358;2024-02-15T00:59:37;11.07;;;3.27;;
7575;SDS011;3829;50.798;4.358;2024-02-15T01:02:03;9.67;;;3.03;;
7575;SDS011;3829;50.798;4.358;2024-02-15T01:04:30;11.60;;;2.67;;
7575;SDS011;3829;50.798;4.358;2024-02-15T01:06:57;6.37;;;2.90;;
7575;SDS011;3829;50.798;4.358;2024-02-15T01:09:23;7.87;;;3.23;;
7575;SDS011;3829;50.798;4.358;2024-02-15T01:11:48;4.27;;;2.20;;
7575;SDS011;3829;50.798;4.358;2024-02-15T01:14:14;9.57;;;3.80;;
7575;SDS011;3829;50.798;4.358;2024-02-15T01:16:40;4.90;;;2.50;;
7575;SDS011;3829;50.798;4.358;2024-02-15T01:19:06;11.70;;;3.23;;
7575;SDS011;3829;50.798;4.358;2024-02-15T01:21:32;8.70;;;2.57;;
7575;SDS011;3829;50.798;4.358;2024-02-15T01:23:58;5.30;;;2.60;;
7575;SDS011;3829;50.798;4.358;2024-02-15T01:26:25;9.60;;;2.40;;
7575;SDS011;3829;50.798;4.358;2024-02-15T01:28:51;9.23;;;2.60;;
7575;SDS011;3829;50.798;4.358;2024-02-15T01:31:17;5.40;;;2.40;;
7575;SDS011;3829;50.798;4.358;2024-02-15T01:33:43;12.50;;;2.47;;
7575;SDS011;3829;50.798;4.358;2024-02-15T01:36:13;4.27;;;2.20;;
7575;SDS011;3829;50.798;4.358;2024-02-15T01:38:40;9.00;;;2.43;;
7575;SDS011;3829;50.798;4.358;2024-02-15T01:41:06;8.20;;;2.80;;
7575;SDS011;3829;50.798;4.358;2024-02-15T01:43:33;7.30;;;2.17;;
7575;SDS011;3829;50.798;4.358;2024-02-15T01:45:58;7.00;;;2.27;;
7575;SDS011;3829;50.798;4.358;2024-02-15T01:48:28;7.07;;;2.63;;
7575;SDS011;3829;50.798;4.358;2024-02-15T01:50:55;7.30;;;2.37;;
7575;SDS011;3829;50.798;4.358;2024-02-15T01:53:23;10.03;;;2.57;;
7575;SDS011;3829;50.798;4.358;2024-02-15T01:55:49;11.17;;;2.73;;
7575;SDS011;3829;50.798;4.358;2024-02-15T01:58:15;5.20;;;2.43;;
7575;SDS011;3829;50.798;4.358;2024-02-15T02:00:40;9.60;;;2.37;;
7575;SDS011;3829;50.798;4.358;2024-02-15T02:03:06;12.20;;;3.10;;
7575;SDS011;3829;50.798;4.358;2024-02-15T02:05:35;7.17;;;2.37;;
7575;SDS011;3829;50.798;4.358;2024-02-15T02:08:01;3.87;;;2.07;;
7575;SDS011;3829;50.798;4.358;2024-02-15T02:10:34;3.50;;;2.20;;
7575;SDS011;3829;50.798;4.358;2024-02-15T02:13:01;3.50;;;2.13;;
7575;SDS011;3829;50.798;4.358;2024-02-15T02:15:27;8.67;;;2.60;;
7575;SDS011;3829;50.798;4.358;2024-02-15T02:17:53;9.60;;;2.60;;
7575;SDS011;3829;50.798;4.358;2024-02-15T02:20:19;10.87;;;2.43;;
7575;SDS011;3829;50.798;4.358;2024-02-15T02:22:46;8.90;;;2.07;;
7575;SDS011;3829;50.798;4.358;2024-02-15T02:25:15;5.63;;;2.00;;
7575;SDS011;3829;50.798;4.358;2024-02-15T02:27:42;9.80;;;2.40;;
7575;SDS011;3829;50.798;4.358;2024-02-15T02:30:15;3.23;;;1.77;;
7575;SDS011;3829;50.798;4.358;2024-02-15T02:32:44;7.93;;;2.47;;
7575;SDS011;3829;50.798;4.358;2024-02-15T02:35:11;9.13;;;2.80;;
7575;SDS011;3829;50.798;4.358;2024-02-15T02:37:37;4.67;;;2.10;;
7575;SDS011;3829;50.798;4.358;2024-02-15T02:40:05;4.23;;;1.70;;
7575;SDS011;3829;50.798;4.358;2024-02-15T02:42:36;4.23;;;2.00;;
7575;SDS011;3829;50.798;4.358;2024-02-15T02:45:13;5.23;;;2.10;;
7575;SDS011;3829;50.798;4.358;2024-02-15T02:47:39;6.83;;;2.00;;
7575;SDS011;3829;50.798;4.358;2024-02-15T02:50:04;6.57;;;2.30;;
7575;SDS011;3829;50.798;4.358;2024-02-15T02:52:30;5.40;;;2.07;;
7575;SDS011;3829;50.798;4.358;2024-02-15T02:54:56;5.57;;;2.17;;
7575;SDS011;3829;50.798;4.358;2024-02-15T02:57:23;5.70;;;2.10;;
7575;SDS011;3829;50.798;4.358;2024-02-15T02:59:48;5.47;;;2.30;;
7575;SDS011;3829;50.798;4.358;2024-02-15T03:02:14;6.00;;;2.17;;
7575;SDS011;3829;50.798;4.358;2024-02-15T03:04:39;5.20;;;2.30;;
7575;SDS011;3829;50.798;4.358;2024-02-15T03:07:05;7.60;;;2.10;;
7575;SDS011;3829;50.798;4.358;2024-02-15T03:09:31;6.63;;;2.10;;
7575;SDS011;3829;50.798;4.358;2024-02-15T03:11:58;6.77;;;2.10;;
7575;SDS011;3829;50.798;4.358;2024-02-15T03:14:26;4.63;;;2.10;;
7575;SDS011;3829;50.798;4.358;2024-02-15T03:16:51;6.50;;;2.53;;
7575;SDS011;3829;50.798;4.358;2024-02-15T03:19:17;8.47;;;1.90;;
7575;SDS011;3829;50.798;4.358;2024-02-15T03:21:42;7.00;;;2.47;;
7575;SDS011;3829;50.798;4.358;2024-02-15T03:24:11;4.37;;;2.03;;
7575;SDS011;3829;50.798;4.358;2024-02-15T03:26:37;4.10;;;1.90;;
7575;SDS011;3829;50.798;4.358;2024-02-15T03:29:03;7.90;;;2.30;;
7575;SDS011;3829;50.798;4.358;2024-02-15T03:31:29;6.60;;;2.37;;
7575;SDS011;3829;50.798;4.358;2024-02-15T03:33:56;5.87;;;1.90;;
7575;SDS011;3829;50.798;4.358;2024-02-15T03:36:24;6.53;;;1.83;;
7575;SDS011;3829;50.798;4.358;2024-02-15T03:38:49;9.50;;;2.10;;
7575;SDS011;3829;50.798;4.358;2024-02-15T03:41:15;4.47;;;2.33;;
7575;SDS011;3829;50.798;4.358;2024-02-15T03:43:40;6.17;;;2.40;;
7575;SDS011;3829;50.798;4.358;2024-02-15T03:46:06;6.07;;;1.90;;
7575;SDS011;3829;50.798;4.358;2024-02-15T03:48:33;8.43;;;2.10;;
7575;SDS011;3829;50.798;4.358;2024-02-15T03:50:59;5.13;;;1.87;;
7575;SDS011;3829;50.798;4.358;2024-02-15T03:53:26;6.07;;;2.00;;
7575;SDS011;3829;50.798;4.358;2024-02-15T03:55:55;8.10;;;2.53;;
7575;SDS011;3829;50.798;4.358;2024-02-15T03:58:21;11.23;;;2.10;;
7575;SDS011;3829;50.798;4.358;2024-02-15T04:00:46;8.83;;;2.10;;
7575;SDS011;3829;50.798;4.358;2024-02-15T04:03:12;5.17;;;1.73;;
7575;SDS011;3829;50.798;4.358;2024-02-15T04:05:38;5.20;;;2.20;;
7575;SDS011;3829;50.798;4.358;2024-02-15T04:08:05;3.87;;;1.97;;
7575;SDS011;3829;50.798;4.358;2024-02-15T04:10:31;6.37;;;2.40;;
7575;SDS011;3829;50.798;4.358;2024-02-15T04:12:56;7.37;;;2.37;;
7575;SDS011;3829;50.798;4.358;2024-02-15T04:15:23;6.87;;;2.27;;
7575;SDS011;3829;50.798;4.358;2024-02-15T04:17:49;4.27;;;2.00;;
7575;SDS011;3829;50.798;4.358;2024-02-15T04:20:20;6.17;;;1.87;;
7575;SDS011;3829;50.798;4.358;2024-02-15T04:22:47;8.27;;;2.03;;
7575;SDS011;3829;50.798;4.358;2024-02-15T04:25:15;5.23;;;2.73;;
7575;SDS011;3829;50.798;4.358;2024-02-15T04:27:44;9.23;;;2.13;;
7575;SDS011;3829;50.798;4.358;2024-02-15T04:30:11;5.70;;;2.03;;
7575;SDS011;3829;50.798;4.358;2024-02-15T04:32:37;4.90;;;1.77;;
7575;SDS011;3829;50.798;4.358;2024-02-15T04:35:02;5.07;;;1.90;;
7575;SDS011;3829;50.798;4.358;2024-02-15T04:37:29;4.87;;;2.07;;
7575;SDS011;3829;50.798;4.358;2024-02-15T04:39:56;8.27;;;2.00;;
7575;SDS011;3829;50.798;4.358;2024-02-15T04:42:23;6.50;;;1.63;;
7575;SDS011;3829;50.798;4.358;2024-02-15T04:44:51;4.33;;;1.77;;
7575;SDS011;3829;50.798;4.358;2024-02-15T04:47:18;5.50;;;1.93;;
7575;SDS011;3829;50.798;4.358;2024-02-15T04:49:45;6.73;;;1.97;;
7575;SDS011;3829;50.798;4.358;2024-02-15T04:52:10;2.67;;;1.90;;
7575;SDS011;3829;50.798;4.358;2024-02-15T04:54:36;3.17;;;1.60;;
7575;SDS011;3829;50.798;4.358;2024-02-15T04:57:03;6.43;;;2.13;;
7575;SDS011;3829;50.798;4.358;2024-02-15T04:59:28;4.57;;;1.97;;
7575;SDS011;3829;50.798;4.358;2024-02-15T05:01:54;5.43;;;1.80;;
7575;SDS011;3829;50.798;4.358;2024-02-15T05:04:21;5.23;;;1.60;;
7575;SDS011;3829;50.798;4.358;2024-02-15T05:06:47;4.53;;;1.67;;
7575;SDS011;3829;50.798;4.358;2024-02-15T05:09:13;3.93;;;1.60;;
7575;SDS011;3829;50.798;4.358;2024-02-15T05:11:39;4.10;;;1.80;;
7575;SDS011;3829;50.798;4.358;2024-02-15T05:14:08;9.90;;;1.53;;
7575;SDS011;3829;50.798;4.358;2024-02-15T05:16:36;6.07;;;1.70;;
7575;SDS011;3829;50.798;4.358;2024-02-15T05:19:07;3.97;;;1.70;;
7575;SDS011;3829;50.798;4.358;2024-02-15T05:21:34;9.30;;;1.70;;
7575;SDS011;3829;50.798;4.358;2024-02-15T05:23:59;4.27;;;1.70;;
7575;SDS011;3829;50.798;4.358;2024-02-15T05:26:25;5.97;;;1.73;;
7575;SDS011;3829;50.798;4.358;2024-02-15T05:28:50;9.57;;;1.70;;
7575;SDS011;3829;50.798;4.358;2024-02-15T05:31:18;7.50;;;1.70;;
7575;SDS011;3829;50.798;4.358;2024-02-15T05:33:46;5.53;;;2.13;;
7575;SDS011;3829;50.798;4.358;2024-02-15T05:36:14;4.73;;;2.27;;
7575;SDS011;3829;50.798;4.358;2024-02-15T05:38:40;4.73;;;1.83;;
7575;SDS011;3829;50.798;4.358;2024-02-15T05:41:05;6.60;;;2.03;;
7575;SDS011;3829;50.798;4.358;2024-02-15T05:43:33;5.53;;;1.53;;
7575;SDS011;3829;50.798;4.358;2024-02-15T05:46:01;2.43;;;1.43;;
7575;SDS011;3829;50.798;4.358;2024-02-15T05:48:28;3.50;;;1.50;;
7575;SDS011;3829;50.798;4.358;2024-02-15T05:50:55;7.67;;;1.57;;
7575;SDS011;3829;50.798;4.358;2024-02-15T05:53:22;5.53;;;1.40;;
7575;SDS011;3829;50.798;4.358;2024-02-15T05:55:48;2.80;;;1.27;;
7575;SDS011;3829;50.798;4.358;2024-02-15T05:58:14;4.53;;;1.63;;
7575;SDS011;3829;50.798;4.358;2024-02-15T06:00:40;5.20;;;1.70;;
7575;SDS011;3829;50.798;4.358;2024-02-15T06:03:06;7.17;;;1.40;;
7575;SDS011;3829;50.798;4.358;2024-02-15T06:05:34;6.43;;;1.33;;
7575;SDS011;3829;50.798;4.358;2024-02-15T06:08:00;2.80;;;1.50;;
7575;SDS011;3829;50.798;4.358;2024-02-15T06:10:25;2.97;;;1.60;;
7575;SDS011;3829;50.798;4.358;2024-02-15T06:12:51;3.70;;;1.23;;
7575;SDS011;3829;50.798;4.358;2024-02-15T06:15:17;5.23;;;1.87;;
7575;SDS011;3829;50.798;4.358;2024-02-15T06:17:43;3.27;;;1.93;;
7575;SDS011;3829;50.798;4.358;2024-02-15T06:20:10;6.60;;;1.70;;
7575;SDS011;3829;50.798;4.358;2024-02-15T06:22:38;3.47;;;1.63;;
7575;SDS011;3829;50.798;4.358;2024-02-15T06:25:04;4.27;;;1.60;;
7575;SDS011;3829;50.798;4.358;2024-02-15T06:27:30;5.60;;;2.20;;
7575;SDS011;3829;50.798;4.358;2024-02-15T06:29:57;2.40;;;1.30;;
7575;SDS011;3829;50.798;4.358;2024-02-15T06:32:42;3.30;;;1.50;;
7575;SDS011;3829;50.798;4.358;2024-02-15T06:35:18;5.23;;;1.70;;
7575;SDS011;3829;50.798;4.358;2024-02-15T06:37:53;6.03;;;1.73;;
7575;SDS011;3829;50.798;4.358;2024-02-15T06:40:29;6.10;;;3.40;;
7575;SDS011;3829;50.798;4.358;2024-02-15T06:42:55;4.27;;;1.83;;
7575;SDS011;3829;50.798;4.358;2024-02-15T06:45:21;5.43;;;1.97;;
7575;SDS011;3829;50.798;4.358;2024-02-15T06:47:47;1.93;;;1.30;;
7575;SDS011;3829;50.798;4.358;2024-02-15T06:50:13;6.07;;;1.67;;
7575;SDS011;3829;50.798;4.358;2024-02-15T06:52:39;4.73;;;2.03;;
7575;SDS011;3829;50.798;4.358;2024-02-15T06:55:06;4.20;;;1.60;;
7575;SDS011;3829;50.798;4.358;2024-02-15T06:57:33;6.90;;;1.80;;
7575;SDS011;3829;50.798;4.358;2024-02-15T07:00:02;4.43;;;1.60;;
7575;SDS011;3829;50.798;4.358;2024-02-15T07:02:32;4.73;;;1.93;;
7575;SDS011;3829;50.798;4.358;2024-02-15T07:04:58;3.47;;;1.73;;
7575;SDS011;3829;50.798;4.358;2024-02-15T07:07:23;1.73;;;1.60;;
7575;SDS011;3829;50.798;4.358;2024-02-15T07:09:49;5.30;;;1.80;;
7575;SDS011;3829;50.798;4.358;2024-02-15T07:12:14;7.43;;;2.20;;
7575;SDS011;3829;50.798;4.358;2024-02-15T07:14:40;3.93;;;2.13;;
7575;SDS011;3829;50.798;4.358;2024-02-15T07:17:05;2.27;;;1.40;;
7575;SDS011;3829;50.798;4.358;2024-02-15T07:19:32;2.70;;;1.30;;
7575;SDS011;3829;50.798;4.358;2024-02-15T07:22:01;3.07;;;1.40;;
7575;SDS011;3829;50.798;4.358;2024-02-15T07:24:27;3.07;;;1.47;;
7575;SDS011;3829;50.798;4.358;2024-02-15T07:26:53;2.60;;;1.43;;
7575;SDS011;3829;50.798;4.358;2024-02-15T07:29:20;2.50;;;1.60;;
7575;SDS011;3829;50.798;4.358;2024-02-15T07:31:48;2.70;;;1.30;;
7575;SDS011;3829;50.798;4.358;2024-02-15T07:34:14;3.90;;;1.40;;
7575;SDS011;3829;50.798;4.358;2024-02-15T07:36:41;6.53;;;1.70;;
7575;SDS011;3829;50.798;4.358;2024-02-15T07:39:08;4.60;;;2.03;;
7575;SDS011;3829;50.798;4.358;2024-02-15T07:41:37;2.10;;;1.50;;
7575;SDS011;3829;50.798;4.358;2024-02-15T07:44:03;3.70;;;1.40;;
7575;SDS011;3829;50.798;4.358;2024-02-15T07:46:29;5.77;;;1.77;;
7575;SDS011;3829;50.798;4.358;2024-02-15T07:48:55;3.87;;;1.57;;
7575;SDS011;3829;50.798;4.358;2024-02-15T07:51:21;2.97;;;1.43;;
7575;SDS011;3829;50.798;4.358;2024-02-15T07:53:47;2.10;;;1.40;;
7575;SDS011;3829;50.798;4.358;2024-02-15T07:56:14;3.90;;;1.67;;
7575;SDS011;3829;50.798;4.358;2024-02-15T07:58:41;5.10;;;1.50;;
7575;SDS011;3829;50.798;4.358;2024-02-15T08:01:10;3.20;;;1.50;;
7575;SDS011;3829;50.798;4.358;2024-02-15T08:03:35;5.27;;;1.67;;
7575;SDS011;3829;50.798;4.358;2024-02-15T08:06:02;4.47;;;1.80;;
7575;SDS011;3829;50.798;4.358;2024-02-15T08:08:34;4.80;;;1.47;;
7575;SDS011;3829;50.798;4.358;2024-02-15T08:11:01;4.43;;;1.60;;
7575;SDS011;3829;50.798;4.358;2024-02-15T08:13:27;2.87;;;1.40;;
7575;SDS011;3829;50.798;4.358;2024-02-15T08:15:54;2.17;;;1.70;;
7575;SDS011;3829;50.798;4.358;2024-02-15T08:18:20;3.50;;;1.47;;
7575;SDS011;3829;50.798;4.358;2024-02-15T08:20:46;4.23;;;1.97;;
7575;SDS011;3829;50.798;4.358;2024-02-15T08:23:11;4.47;;;1.80;;
7575;SDS011;3829;50.798;4.358;2024-02-15T08:25:38;4.53;;;1.67;;
7575;SDS011;3829;50.798;4.358;2024-02-15T08:28:05;5.13;;;1.67;;
7575;SDS011;3829;50.798;4.358;2024-02-15T08:30:32;6.13;;;2.03;;
7575;SDS011;3829;50.798;4.358;2024-02-15T08:32:58;3.90;;;1.63;;
7575;SDS011;3829;50.798;4.358;2024-02-15T08:35:23;3.03;;;1.53;;
7575;SDS011;3829;50.798;4.358;2024-02-15T08:37:49;3.53;;;1.60;;
7575;SDS011;3829;50.798;4.358;2024-02-15T08:40:17;4.37;;;1.73;;
7575;SDS011;3829;50.798;4.358;2024-02-15T08:42:44;5.07;;;2.00;;
7575;SDS011;3829;50.798;4.358;2024-02-15T08:45:11;3.30;;;1.50;;
7575;SDS011;3829;50.798;4.358;2024-02-15T08:47:41;5.33;;;1.60;;
7575;SDS011;3829;50.798;4.358;2024-02-15T08:50:08;4.87;;;1.83;;
7575;SDS011;3829;50.798;4.358;2024-02-15T08:52:35;2.43;;;1.57;;
7575;SDS011;3829;50.798;4.358;2024-02-15T08:55:03;2.67;;;1.67;;
7575;SDS011;3829;50.798;4.358;2024-02-15T08:57:34;3.77;;;1.80;;
7575;SDS011;3829;50.798;4.358;2024-02-15T09:00:03;2.27;;;1.70;;
7575;SDS011;3829;50.798;4.358;2024-02-15T09:02:34;3.10;;;1.97;;
7575;SDS011;3829;50.798;4.358;2024-02-15T09:05:00;1.93;;;1.30;;
7575;SDS011;3829;50.798;4.358;2024-02-15T09:07:25;2.77;;;1.70;;
7575;SDS011;3829;50.798;4.358;2024-02-15T09:09:51;4.23;;;2.00;;
7575;SDS011;3829;50.798;4.358;2024-02-15T09:12:17;3.53;;;2.03;;
7575;SDS011;3829;50.798;4.358;2024-02-15T09:14:42;5.13;;;1.63;;
7575;SDS011;3829;50.798;4.358;2024-02-15T09:17:08;5.93;;;1.60;;
7575;SDS011;3829;50.798;4.358;2024-02-15T09:19:34;3.60;;;1.80;;
7575;SDS011;3829;50.798;4.358;2024-02-15T09:22:00;3.90;;;1.77;;
7575;SDS011;3829;50.798;4.358;2024-02-15T09:24:26;4.23;;;1.63;;
7575;SDS011;3829;50.798;4.358;2024-02-15T09:26:52;4.97;;;1.50;;
7575;SDS011;3829;50.798;4.358;2024-02-15T09:29:18;6.57;;;2.60;;
7575;SDS011;3829;50.798;4.358;2024-02-15T09:31:46;7.20;;;2.23;;
7575;SDS011;3829;50.798;4.358;2024-02-15T09:34:12;3.93;;;1.80;;
7575;SDS011;3829;50.798;4.358;2024-02-15T09:36:38;3.37;;;1.93;;
7575;SDS011;3829;50.798;4.358;2024-02-15T09:39:04;6.60;;;2.40;;
7575;SDS011;3829;50.798;4.358;2024-02-15T09:41:30;7.83;;;2.27;;
7575;SDS011;3829;50.798;4.358;2024-02-15T09:43:57;3.13;;;1.83;;
7575;SDS011;3829;50.798;4.358;2024-02-15T09:46:23;2.30;;;1.70;;
7575;SDS011;3829;50.798;4.358;2024-02-15T09:48:50;5.27;;;1.83;;
7575;SDS011;3829;50.798;4.358;2024-02-15T09:51:17;3.27;;;2.67;;
7575;SDS011;3829;50.798;4.358;2024-02-15T09:53:45;4.27;;;2.13;;
7575;SDS011;3829;50.798;4.358;2024-02-15T09:56:12;3.87;;;1.77;;
7575;SDS011;3829;50.798;4.358;2024-02-15T09:58:40;4.40;;;2.20;;
7575;SDS011;3829;50.798;4.358;2024-02-15T10:01:06;5.10;;;1.43;;
7575;SDS011;3829;50.798;4.358;2024-02-15T10:03:34;3.33;;;1.43;;
7575;SDS011;3829;50.798;4.358;2024-02-15T10:06:05;5.67;;;1.87;;
7575;SDS011;3829;50.798;4.358;2024-02-15T10:08:31;3.40;;;1.70;;
7575;SDS011;3829;50.798;4.358;2024-02-15T10:13:33;3.67;;;1.67;;
7575;SDS011;3829;50.798;4.358;2024-02-15T10:15:59;4.33;;;1.73;;
7575;SDS011;3829;50.798;4.358;2024-02-15T10:18:39;3.20;;;1.90;;
7575;SDS011;3829;50.798;4.358;2024-02-15T10:21:05;6.07;;;1.60;;
7575;SDS011;3829;50.798;4.358;2024-02-15T10:23:30;3.13;;;1.70;;
7575;SDS011;3829;50.798;4.358;2024-02-15T10:25:56;4.97;;;2.30;;
7575;SDS011;3829;50.798;4.358;2024-02-15T10:28:23;2.67;;;1.60;;
7575;SDS011;3829;50.798;4.358;2024-02-15T10:30:49;5.67;;;1.70;;
7575;SDS011;3829;50.798;4.358;2024-02-15T10:33:19;4.00;;;2.07;;
7575;SDS011;3829;50.798;4.358;2024-02-15T10:35:50;6.03;;;1.80;;
7575;SDS011;3829;50.798;4.358;2024-02-15T10:38:33;6.47;;;2.20;;
7575;SDS011;3829;50.798;4.358;2024-02-15T10:41:06;6.63;;;2.00;;
7575;SDS011;3829;50.798;4.358;2024-02-15T10:43:33;2.90;;;1.90;;
7575;SDS011;3829;50.798;4.358;2024-02-15T10:45:59;9.50;;;1.87;;
7575;SDS011;3829;50.798;4.358;2024-02-15T10:48:26;6.40;;;1.90;;
7575;SDS011;3829;50.798;4.358;2024-02-15T10:50:53;3.70;;;1.70;;
7575;SDS011;3829;50.798;4.358;2024-02-15T10:53:24;2.43;;;1.60;;
7575;SDS011;3829;50.798;4.358;2024-02-15T10:55:55;5.87;;;1.50;;
7575;SDS011;3829;50.798;4.358;2024-02-15T10:58:39;3.87;;;1.50;;
7575;SDS011;3829;50.798;4.358;2024-02-15T11:01:13;3.70;;;1.70;;
7575;SDS011;3829;50.798;4.358;2024-02-15T11:03:47;1.77;;;1.40;;
7575;SDS011;3829;50.798;4.358;2024-02-15T11:06:18;2.80;;;1.67;;
7575;SDS011;3829;50.798;4.358;2024-02-15T11:08:47;3.17;;;1.80;;
7575;SDS011;3829;50.798;4.358;2024-02-15T11:11:13;4.07;;;1.50;;
7575;SDS011;3829;50.798;4.358;2024-02-15T11:13:39;3.43;;;1.87;;
7575;SDS011;3829;50.798;4.358;2024-02-15T11:16:07;5.73;;;1.83;;
7575;SDS011;3829;50.798;4.358;2024-02-15T11:21:10;5.00;;;1.80;;
7575;SDS011;3829;50.798;4.358;2024-02-15T11:23:36;4.13;;;1.63;;
7575;SDS011;3829;50.798;4.358;2024-02-15T11:26:02;7.60;;;1.60;;
7575;SDS011;3829;50.798;4.358;2024-02-15T11:28:35;1.63;;;1.30;;
7575;SDS011;3829;50.798;4.358;2024-02-15T11:31:03;2.63;;;1.30;;
7575;SDS011;3829;50.798;4.358;2024-02-15T11:33:32;5.40;;;1.50;;
7575;SDS011;3829;50.798;4.358;2024-02-15T11:36:03;2.80;;;1.63;;
7575;SDS011;3829;50.798;4.358;2024-02-15T11:38:30;4.00;;;1.30;;
7575;SDS011;3829;50.798;4.358;2024-02-15T11:41:01;6.40;;;1.50;;
7575;SDS011;3829;50.798;4.358;2024-02-15T11:46:14;3.93;;;1.80;;
7575;SDS011;3829;50.798;4.358;2024-02-15T11:48:45;2.63;;;1.20;;
7575;SDS011;3829;50.798;4.358;2024-02-15T11:56:33;3.10;;;1.63;;
7575;SDS011;3829;50.798;4.358;2024-02-15T11:59:19;2.30;;;1.40;;
7575;SDS011;3829;50.798;4.358;2024-02-15T12:01:56;2.10;;;1.23;;
7575;SDS011;3829;50.798;4.358;2024-02-15T12:04:31;4.30;;;1.80;;
7575;SDS011;3829;50.798;4.358;2024-02-15T12:07:07;5.30;;;2.60;;
7575;SDS011;3829;50.798;4.358;2024-02-15T12:09:43;6.03;;;1.87;;
7575;SDS011;3829;50.798;4.358;2024-02-15T12:12:18;6.47;;;1.90;;
7575;SDS011;3829;50.798;4.358;2024-02-15T12:14:58;6.73;;;2.30;;
7575;SDS011;3829;50.798;4.358;2024-02-15T12:17:37;6.70;;;2.10;;
7575;SDS011;3829;50.798;4.358;2024-02-15T12:20:13;4.93;;;2.20;;
7575;SDS011;3829;50.798;4.358;2024-02-15T12:22:40;5.13;;;2.10;;
7575;SDS011;3829;50.798;4.358;2024-02-15T12:25:13;6.63;;;2.23;;
7575;SDS011;3829;50.798;4.358;2024-02-15T12:27:41;4.67;;;1.80;;
7575;SDS011;3829;50.798;4.358;2024-02-15T12:30:16;6.10;;;2.00;;
7575;SDS011;3829;50.798;4.358;2024-02-15T12:32:46;6.40;;;1.87;;
7575;SDS011;3829;50.798;4.358;2024-02-15T12:35:13;4.20;;;1.80;;
7575;SDS011;3829;50.798;4.358;2024-02-15T12:37:43;2.33;;;1.40;;
7575;SDS011;3829;50.798;4.358;2024-02-15T12:40:10;4.23;;;1.77;;
7575;SDS011;3829;50.798;4.358;2024-02-15T12:42:40;6.23;;;1.77;;
7575;SDS011;3829;50.798;4.358;2024-02-15T12:45:08;5.20;;;1.70;;
7575;SDS011;3829;50.798;4.358;2024-02-15T12:47:46;8.03;;;1.60;;
7575;SDS011;3829;50.798;4.358;2024-02-15T12:50:16;3.23;;;1.57;;
7575;SDS011;3829;50.798;4.358;2024-02-15T12:52:44;3.07;;;1.83;;
7575;SDS011;3829;50.798;4.358;2024-02-15T12:55:14;3.20;;;1.40;;
7575;SDS011;3829;50.798;4.358;2024-02-15T12:57:42;2.73;;;1.47;;
7575;SDS011;3829;50.798;4.358;2024-02-15T13:00:10;2.60;;;1.30;;
7575;SDS011;3829;50.798;4.358;2024-02-15T13:02:38;1.50;;;1.17;;
7575;SDS011;3829;50.798;4.358;2024-02-15T13:05:05;2.50;;;1.50;;
7575;SDS011;3829;50.798;4.358;2024-02-15T13:07:33;1.43;;;1.03;;
7575;SDS011;3829;50.798;4.358;2024-02-15T13:10:01;1.83;;;1.40;;
7575;SDS011;3829;50.798;4.358;2024-02-15T13:12:28;3.23;;;1.40;;
7575;SDS011;3829;50.798;4.358;2024-02-15T13:14:54;2.77;;;1.27;;
7575;SDS011;3829;50.798;4.358;2024-02-15T13:17:20;3.07;;;1.20;;
7575;SDS011;3829;50.798;4.358;2024-02-15T13:19:46;3.73;;;1.30;;
7575;SDS011;3829;50.798;4.358;2024-02-15T13:22:14;3.30;;;1.17;;
7575;SDS011;3829;50.798;4.358;2024-02-15T13:24:40;2.13;;;1.30;;
7575;SDS011;3829;50.798;4.358;2024-02-15T13:27:07;2.20;;;1.20;;
7575;SDS011;3829;50.798;4.358;2024-02-15T13:29:37;3.33;;;1.53;;
7575;SDS011;3829;50.798;4.358;2024-02-15T13:32:05;4.93;;;1.77;;
7575;SDS011;3829;50.798;4.358;2024-02-15T13:34:31;2.40;;;1.53;;
7575;SDS011;3829;50.798;4.358;2024-02-15T13:36:58;1.83;;;1.30;;
7575;SDS011;3829;50.798;4.358;2024-02-15T13:39:26;2.03;;;1.40;;
7575;SDS011;3829;50.798;4.358;2024-02-15T13:41:57;2.90;;;1.37;;
7575;SDS011;3829;50.798;4.358;2024-02-15T13:44:26;3.20;;;1.57;;
7575;SDS011;3829;50.798;4.358;2024-02-15T13:46:52;2.20;;;1.30;;
7575;SDS011;3829;50.798;4.358;2024-02-15T13:49:20;1.80;;;1.33;;
7575;SDS011;3829;50.798;4.358;2024-02-15T13:51:46;2.37;;;1.33;;
7575;SDS011;3829;50.798;4.358;2024-02-15T13:54:12;3.63;;;2.43;;
7575;SDS011;3829;50.798;4.358;2024-02-15T13:56:37;2.80;;;1.33;;
7575;SDS011;3829;50.798;4.358;2024-02-15T13:59:04;2.20;;;1.43;;
7575;SDS011;3829;50.798;4.358;2024-02-15T14:01:30;2.43;;;2.00;;
7575;SDS011;3829;50.798;4.358;2024-02-15T14:03:56;3.23;;;1.23;;
7575;SDS011;3829;50.798;4.358;2024-02-15T14:06:22;1.60;;;1.50;;
7575;SDS011;3829;50.798;4.358;2024-02-15T14:08:48;2.20;;;1.30;;
7575;SDS011;3829;50.798;4.358;2024-02-15T14:11:15;1.87;;;1.30;;
7575;SDS011;3829;50.798;4.358;2024-02-15T14:13:42;1.00;;;1.00;;
7575;SDS011;3829;50.798;4.358;2024-02-15T14:16:08;4.93;;;1.30;;
7575;SDS011;3829;50.798;4.358;2024-02-15T14:18:33;4.70;;;1.53;;
7575;SDS011;3829;50.798;4.358;2024-02-15T14:20:59;1.30;;;1.10;;
7575;SDS011;3829;50.798;4.358;2024-02-15T14:23:25;3.10;;;1.50;;
7575;SDS011;3829;50.798;4.358;2024-02-15T14:25:52;4.97;;;1.40;;
7575;SDS011;3829;50.798;4.358;2024-02-15T14:28:18;1.37;;;1.10;;
7575;SDS011;3829;50.798;4.358;2024-02-15T14:30:43;1.23;;;1.13;;
7575;SDS011;3829;50.798;4.358;2024-02-15T14:33:19;2.70;;;1.13;;
7575;SDS011;3829;50.798;4.358;2024-02-15T14:35:47;3.27;;;1.20;;
7575;SDS011;3829;50.798;4.358;2024-02-15T14:38:14;4.20;;;1.40;;
7575;SDS011;3829;50.798;4.358;2024-02-15T14:40:42;1.63;;;1.30;;
7575;SDS011;3829;50.798;4.358;2024-02-15T14:43:10;1.80;;;1.23;;
7575;SDS011;3829;50.798;4.358;2024-02-15T14:45:38;1.20;;;1.10;;
7575;SDS011;3829;50.798;4.358;2024-02-15T14:48:06;1.70;;;1.00;;
7575;SDS011;3829;50.798;4.358;2024-02-15T14:50:34;2.00;;;1.20;;
7575;SDS011;3829;50.798;4.358;2024-02-15T14:53:01;3.13;;;1.00;;
7575;SDS011;3829;50.798;4.358;2024-02-15T14:55:27;2.43;;;1.50;;
7575;SDS011;3829;50.798;4.358;2024-02-15T14:57:56;5.80;;;0.90;;
7575;SDS011;3829;50.798;4.358;2024-02-15T15:00:22;2.83;;;1.10;;
7575;SDS011;3829;50.798;4.358;2024-02-15T15:02:49;5.00;;;1.90;;
7575;SDS011;3829;50.798;4.358;2024-02-15T15:05:15;5.23;;;1.60;;
7575;SDS011;3829;50.798;4.358;2024-02-15T15:07:51;3.10;;;1.10;;
7575;SDS011;3829;50.798;4.358;2024-02-15T15:10:27;1.30;;;1.20;;
7575;SDS011;3829;50.798;4.358;2024-02-15T15:13:02;3.50;;;1.17;;
7575;SDS011;3829;50.798;4.358;2024-02-15T15:15:28;3.03;;;1.00;;
7575;SDS011;3829;50.798;4.358;2024-02-15T15:17:54;2.07;;;0.90;;
7575;SDS011;3829;50.798;4.358;2024-02-15T15:20:20;2.17;;;1.10;;
7575;SDS011;3829;50.798;4.358;2024-02-15T15:22:46;2.13;;;1.07;;
7575;SDS011;3829;50.798;4.358;2024-02-15T15:25:11;7.27;;;1.50;;
7575;SDS011;3829;50.798;4.358;2024-02-15T15:27:37;1.70;;;1.00;;
7575;SDS011;3829;50.798;4.358;2024-02-15T15:30:04;1.73;;;1.20;;